| time (UTC) | temp F | wind direction | speed knots | gust knots | rain 1hr in | rain 24hr in | rain mn in | humidity % | barometer mb |
| 20260502193817 | 65 | 223 | 4.3 | 9.6 | 0.00 | 0.00 | 0.00 | 38 | 1011.9 |
| 20260502193314 | 64 | 247 | 9.6 | 13.0 | 0.00 | 0.00 | 0.00 | 35 | 1012.1 |
| 20260502192815 | 64 | 237 | 7.0 | 13.0 | 0.00 | 0.00 | 0.00 | 36 | 1012.1 |
| 20260502192312 | 64 | 221 | 4.3 | 12.2 | 0.00 | 0.00 | 0.00 | 36 | 1011.9 |
| 20260502191809 | 64 | 205 | 7.8 | 15.6 | 0.00 | 0.00 | 0.00 | 38 | 1012.3 |
| 20260502191307 | 65 | 246 | 2.6 | 4.3 | 0.00 | 0.00 | 0.00 | 37 | 1012.3 |
| 20260502190804 | 65 | 225 | 1.7 | 5.2 | 0.00 | 0.00 | 0.00 | 40 | 1012.5 |
| 20260502190301 | 63 | 328 | 2.6 | 8.7 | 0.00 | 0.00 | 0.00 | 38 | 1012.6 |
| 20260502185756 | 63 | 229 | 4.3 | 8.7 | 0.00 | 0.00 | 0.00 | 36 | 1013.0 |
| 20260502185253 | 63 | 339 | 0.0 | 12.2 | 0.00 | 0.00 | 0.00 | 37 | 1012.8 |
| 20260502184749 | 62 | 183 | 2.6 | 8.7 | 0.00 | 0.00 | 0.00 | 39 | 1013.0 |
| 20260502184245 | 61 | 235 | 2.6 | 8.7 | 0.00 | 0.00 | 0.00 | 39 | 1013.0 |
| 20260502183742 | 62 | 226 | 4.3 | 13.9 | 0.00 | 0.00 | 0.00 | 39 | 1013.2 |
| 20260502183238 | 62 | 252 | 1.7 | 9.6 | 0.00 | 0.00 | 0.00 | 37 | 1013.4 |
| 20260502182733 | 62 | 219 | 14.8 | 14.8 | 0.00 | 0.00 | 0.00 | 38 | 1013.5 |
| 20260502182229 | 62 | 217 | 3.5 | 8.7 | 0.00 | 0.00 | 0.00 | 39 | 1013.5 |
| 20260502181726 | 62 | 213 | 3.5 | 9.6 | 0.00 | 0.00 | 0.00 | 38 | 1013.7 |
| 20260502181226 | 61 | 236 | 4.3 | 13.9 | 0.00 | 0.00 | 0.00 | 40 | 1013.7 |
| 20260502180722 | 61 | 234 | 7.0 | 11.3 | 0.00 | 0.00 | 0.00 | 36 | 1014.0 |
| 20260502180220 | 61 | 230 | 4.3 | 9.6 | 0.00 | 0.00 | 0.00 | 39 | 1014.0 |
| 20260502170144 | 59 | 223 | 11.3 | 12.2 | 0.00 | 0.00 | 0.00 | 40 | 1014.8 |
| 20260502164130 | 57 | 223 | 12.2 | 15.6 | 0.00 | 0.00 | 0.00 | 41 | 1015.0 |
| 20260502163626 | 57 | 210 | 7.8 | 9.6 | 0.00 | 0.00 | 0.00 | 41 | 1015.3 |
| 20260502163123 | 56 | 228 | 7.0 | 12.2 | 0.00 | 0.00 | 0.00 | 42 | 1015.1 |
| 20260502162620 | 56 | 180 | 0.0 | 10.4 | 0.00 | 0.00 | 0.00 | 41 | 1015.4 |
| 20260502162117 | 56 | 226 | 6.1 | 8.7 | 0.00 | 0.00 | 0.00 | 40 | 1015.5 |
| 20260502161614 | 56 | 234 | 8.7 | 9.6 | 0.00 | 0.00 | 0.00 | 42 | 1015.4 |
| 20260502161111 | 56 | 227 | 8.7 | 9.6 | 0.00 | 0.00 | 0.00 | 40 | 1015.6 |
| 20260502160609 | 56 | 186 | 4.3 | 12.2 | 0.00 | 0.00 | 0.00 | 39 | 1015.6 |
| 20260502160108 | 56 | 274 | 0.0 | 6.1 | 0.00 | 0.00 | 0.00 | 43 | 1015.5 |
| 20260502152022 | 53 | 225 | 2.6 | 8.7 | 0.00 | 0.00 | 0.00 | 46 | 1016.5 |
| 20260502151519 | 54 | 242 | 2.6 | 7.8 | 0.00 | 0.00 | 0.00 | 48 | 1016.1 |
| 20260502151016 | 53 | 267 | 2.6 | 12.2 | 0.00 | 0.00 | 0.00 | 49 | 1016.1 |
| 20260502150514 | 53 | 240 | 4.3 | 13.0 | 0.00 | 0.00 | 0.00 | 50 | 1016.2 |
| 20260502130358 | 43 | 258 | 0.0 | 2.6 | 0.00 | 0.00 | 0.00 | 70 | 1016.9 |
| 20260502123341 | 39 | 240 | 0.0 | 2.6 | 0.00 | 0.00 | 0.00 | 75 | 1017.0 |
| 20260502122838 | 38 | 262 | 0.0 | 1.7 | 0.00 | 0.00 | 0.00 | 77 | 1016.9 |
| 20260502122333 | 37 | 198 | 0.9 | 1.7 | 0.00 | 0.00 | 0.00 | 78 | 1016.8 |
| 20260502121833 | 37 | 198 | 0.0 | 0.9 | 0.00 | 0.00 | 0.00 | 78 | 1016.7 |
| 20260502121329 | 37 | 165 | 0.0 | 0.9 | 0.00 | 0.00 | 0.00 | 78 | 1016.7 |
| 20260502120826 | 36 | 180 | 0.0 | 0.0 | 0.00 | 0.00 | 0.00 | 79 | 1016.7 |
| 20260502120323 | 35 | 243 | 0.0 | 0.0 | 0.00 | 0.00 | 0.00 | 79 | 1016.7 |
| 20260502115820 | 35 | 294 | 0.0 | 0.9 | 0.00 | 0.00 | 0.00 | 79 | 1016.8 |
| 20260502115317 | 35 | 228 | 0.0 | 0.0 | 0.00 | 0.00 | 0.00 | 80 | 1016.9 |
| 20260502114814 | 35 | 254 | 0.0 | 0.0 | 0.00 | 0.00 | 0.00 | 80 | 1016.8 |
| 20260502114310 | 35 | 103 | 0.0 | 0.9 | 0.00 | 0.00 | 0.00 | 80 | 1016.9 |
| 20260502113808 | 34 | 106 | 0.0 | 0.0 | 0.00 | 0.00 | 0.00 | 81 | 1016.8 |
| 20260502113305 | 34 | 106 | 0.0 | 0.0 | 0.00 | 0.00 | 0.00 | 80 | 1016.8 |
| 20260502112803 | 34 | 106 | 0.0 | 0.0 | 0.00 | 0.00 | 0.00 | 80 | 1016.6 |
| 20260502112300 | 34 | 187 | 0.0 | 0.9 | 0.00 | 0.00 | 0.00 | 81 | 1016.8 |
| 20260502111757 | 34 | 90 | 0.0 | 0.0 | 0.00 | 0.00 | 0.00 | 80 | 1016.6 |
| 20260502111255 | 34 | 106 | 0.0 | 0.9 | 0.00 | 0.00 | 0.00 | 79 | 1016.7 |
| 20260502110752 | 34 | 114 | 0.0 | 0.0 | 0.00 | 0.00 | 0.00 | 79 | 1016.8 |
| 20260502110250 | 34 | 74 | 0.0 | 0.9 | 0.00 | 0.00 | 0.00 | 79 | 1016.8 |
| 20260502105748 | 35 | 257 | 0.0 | 0.0 | 0.00 | 0.00 | 0.00 | 78 | 1016.6 |
| 20260502105244 | 35 | 257 | 0.0 | 0.0 | 0.00 | 0.00 | 0.00 | 77 | 1016.6 |
| 20260502104742 | 35 | 257 | 0.0 | 0.9 | 0.00 | 0.00 | 0.00 | 77 | 1016.7 |
| 20260502104239 | 35 | 90 | 0.0 | 1.7 | 0.00 | 0.00 | 0.00 | 77 | 1016.9 |
| 20260502103737 | 35 | 106 | 0.0 | 0.0 | 0.00 | 0.00 | 0.00 | 78 | 1016.7 |
| 20260502103234 | 35 | 66 | 0.0 | 0.0 | 0.00 | 0.00 | 0.00 | 78 | 1016.7 |
| 20260502102731 | 35 | 66 | 0.0 | 0.0 | 0.00 | 0.00 | 0.00 | 77 | 1016.3 |
| 20260502102227 | 35 | 66 | 0.0 | 0.0 | 0.00 | 0.00 | 0.00 | 78 | 1016.5 |
| 20260502101726 | 34 | 66 | 0.0 | 0.0 | 0.00 | 0.00 | 0.00 | 78 | 1016.7 |
| 20260502101224 | 34 | 66 | 0.0 | 0.0 | 0.00 | 0.00 | 0.00 | 77 | 1016.7 |
| 20260502100721 | 35 | 56 | 0.0 | 0.9 | 0.00 | 0.00 | 0.00 | 76 | 1016.7 |
| 20260502100220 | 35 | 56 | 0.0 | 0.0 | 0.00 | 0.00 | 0.00 | 76 | 1016.5 |
| 20260502091153 | 36 | 66 | 0.0 | 0.0 | 0.00 | 0.00 | 0.00 | 73 | 1016.7 |
| 20260502090651 | 36 | 66 | 0.0 | 0.0 | 0.00 | 0.00 | 0.00 | 73 | 1016.2 |
| 20260502090148 | 36 | 66 | 0.0 | 0.0 | 0.00 | 0.00 | 0.00 | 73 | 1016.5 |
| 20260502071049 | 38 | 195 | 2.6 | 2.6 | 0.00 | 0.00 | 0.00 | 65 | 1016.8 |
| 20260502070547 | 39 | 204 | 0.0 | 2.6 | 0.00 | 0.00 | 0.00 | 65 | 1016.7 |
| 20260502070045 | 39 | 198 | 0.9 | 2.6 | 0.00 | 0.00 | 0.00 | 65 | 1016.8 |
| 20260502065543 | 39 | 198 | 0.0 | 1.7 | 0.00 | 0.00 | 0.00 | 65 | 1017.0 |
| 20260502065040 | 39 | 180 | 0.9 | 1.7 | 0.00 | 0.00 | 0.00 | 64 | 1017.0 |
| 20260502064539 | 40 | 245 | 0.0 | 1.7 | 0.00 | 0.00 | 0.00 | 62 | 1016.8 |
| 20260502064035 | 39 | 195 | 0.0 | 1.7 | 0.00 | 0.00 | 0.00 | 63 | 1016.9 |
| 20260502063533 | 39 | 165 | 0.0 | 0.0 | 0.00 | 0.00 | 0.00 | 64 | 1016.7 |
| 20260502063031 | 39 | 221 | 1.7 | 1.7 | 0.00 | 0.00 | 0.00 | 63 | 1016.9 |
| 20260502062528 | 39 | 254 | 0.0 | 0.0 | 0.00 | 0.00 | 0.00 | 63 | 1016.9 |
| 20260502062026 | 39 | 254 | 0.0 | 0.0 | 0.00 | 0.00 | 0.00 | 63 | 1016.9 |
| 20260502061524 | 39 | 254 | 0.0 | 0.0 | 0.00 | 0.00 | 0.00 | 63 | 1016.8 |
| 20260502061021 | 39 | 254 | 0.0 | 0.0 | 0.00 | 0.00 | 0.00 | 64 | 1017.0 |
| 20260502060516 | 39 | 254 | 0.0 | 0.0 | 0.00 | 0.00 | 0.00 | 63 | 1017.0 |
| 20260502060013 | 39 | 254 | 0.0 | 0.0 | 0.00 | 0.00 | 0.00 | 65 | 1017.1 |
| 20260502055510 | 39 | 254 | 0.0 | 0.0 | 0.00 | 0.00 | 0.00 | 64 | 1016.8 |
| 20260502055009 | 39 | 198 | 0.0 | 0.0 | 0.00 | 0.00 | 0.00 | 63 | 1017.0 |
| 20260502054507 | 39 | 234 | 0.0 | 0.0 | 0.00 | 0.00 | 0.00 | 63 | 1016.9 |
| 20260502054004 | 39 | 234 | 0.0 | 0.0 | 0.00 | 0.00 | 0.00 | 64 | 1017.2 |
| 20260502053501 | 39 | 234 | 0.0 | 0.0 | 0.00 | 0.00 | 0.00 | 64 | 1017.0 |
| 20260502052959 | 39 | 234 | 0.0 | 0.0 | 0.00 | 0.00 | 0.00 | 65 | 1017.1 |
| 20260502052457 | 40 | 234 | 0.0 | 0.0 | 0.00 | 0.00 | 0.00 | 63 | 1016.9 |
| 20260502051955 | 40 | 165 | 0.0 | 0.0 | 0.00 | 0.00 | 0.00 | 63 | 1017.0 |
| 20260502051452 | 40 | 165 | 0.0 | 0.0 | 0.00 | 0.00 | 0.00 | 64 | 1017.0 |
| 20260502050949 | 40 | 246 | 0.0 | 0.9 | 0.00 | 0.00 | 0.00 | 66 | 1017.1 |
| 20260502050446 | 39 | 186 | 0.0 | 0.0 | 0.00 | 0.00 | 0.00 | 65 | 1017.0 |
| 20260502045943 | 40 | 215 | 0.0 | 0.9 | 0.00 | 0.00 | 0.00 | 65 | 1017.1 |
| 20260502045440 | 40 | 215 | 0.0 | 0.0 | 0.00 | 0.00 | 0.00 | 65 | 1017.0 |
| 20260502044937 | 40 | 215 | 0.0 | 0.0 | 0.00 | 0.00 | 0.00 | 64 | 1016.8 |
| 20260502044432 | 40 | 97 | 0.0 | 0.0 | 0.00 | 0.00 | 0.00 | 65 | 1016.7 |
| 20260502043930 | 40 | 97 | 0.0 | 0.0 | 0.00 | 0.00 | 0.00 | 65 | 1016.8 |
| 20260502043427 | 40 | 97 | 0.0 | 0.0 | 0.00 | 0.00 | 0.00 | 65 | 1016.8 |
| 20260502042927 | 40 | 114 | 0.0 | 0.0 | 0.00 | 0.00 | 0.00 | 64 | 1016.9 |
| 20260502042424 | 41 | 114 | 0.0 | 0.0 | 0.00 | 0.00 | 0.00 | 63 | 1016.9 |
| 20260502041921 | 41 | 114 | 0.0 | 0.0 | 0.00 | 0.00 | 0.00 | 61 | 1016.9 |
| 20260502041419 | 41 | 114 | 0.0 | 0.0 | 0.00 | 0.00 | 0.00 | 60 | 1017.0 |
| 20260502040916 | 41 | 114 | 0.0 | 0.9 | 0.00 | 0.00 | 0.00 | 58 | 1017.0 |
| 20260502040412 | 41 | 262 | 0.0 | 0.0 | 0.00 | 0.00 | 0.00 | 58 | 1016.9 |
| 20260502035909 | 41 | 262 | 0.0 | 0.0 | 0.00 | 0.00 | 0.00 | 60 | 1017.0 |
| 20260502035405 | 40 | 262 | 0.0 | 0.0 | 0.00 | 0.00 | 0.00 | 62 | 1016.9 |
| 20260502034903 | 40 | 262 | 0.0 | 0.0 | 0.00 | 0.00 | 0.00 | 61 | 1016.8 |
| 20260502034401 | 41 | 262 | 0.0 | 0.0 | 0.00 | 0.00 | 0.00 | 60 | 1016.9 |
| 20260502033900 | 41 | 262 | 0.0 | 0.0 | 0.00 | 0.00 | 0.00 | 61 | 1016.9 |
| 20260502033357 | 40 | 262 | 0.0 | 0.0 | 0.00 | 0.00 | 0.00 | 62 | 1017.0 |
| 20260502032853 | 39 | 243 | 0.0 | 0.0 | 0.00 | 0.00 | 0.00 | 64 | 1017.0 |
| 20260502032349 | 39 | 243 | 0.0 | 0.9 | 0.00 | 0.00 | 0.00 | 65 | 1017.0 |
| 20260502031847 | 39 | 352 | 0.0 | 0.0 | 0.00 | 0.00 | 0.00 | 62 | 1016.9 |
| 20260502031345 | 40 | 352 | 0.0 | 0.0 | 0.00 | 0.00 | 0.00 | 62 | 1017.1 |
| 20260502030843 | 40 | 352 | 0.0 | 0.0 | 0.00 | 0.00 | 0.00 | 61 | 1016.8 |
| 20260502030341 | 41 | 352 | 0.0 | 0.0 | 0.00 | 0.00 | 0.00 | 57 | 1017.0 |
| 20260502025838 | 42 | 352 | 0.0 | 0.0 | 0.00 | 0.00 | 0.00 | 55 | 1016.7 |
| 20260502025336 | 42 | 352 | 0.0 | 0.0 | 0.00 | 0.00 | 0.00 | 54 | 1016.9 |
| 20260502024833 | 42 | 352 | 0.0 | 0.0 | 0.00 | 0.00 | 0.00 | 56 | 1017.0 |
| 20260502024331 | 42 | 352 | 0.0 | 0.0 | 0.00 | 0.00 | 0.00 | 56 | 1017.1 |
| 20260502023829 | 42 | 352 | 0.0 | 0.0 | 0.00 | 0.00 | 0.00 | 56 | 1017.0 |
| 20260502023326 | 42 | 352 | 0.0 | 0.0 | 0.00 | 0.00 | 0.00 | 54 | 1016.9 |
| 20260502022824 | 42 | 352 | 0.0 | 0.0 | 0.00 | 0.00 | 0.00 | 54 | 1017.1 |
| 20260502022320 | 43 | 352 | 0.0 | 0.0 | 0.00 | 0.00 | 0.00 | 55 | 1016.9 |
| 20260502021817 | 44 | 352 | 0.0 | 0.0 | 0.00 | 0.00 | 0.00 | 52 | 1016.9 |
| 20260502021314 | 44 | 352 | 0.0 | 0.0 | 0.00 | 0.00 | 0.00 | 52 | 1016.7 |
| 20260502020812 | 44 | 352 | 0.0 | 0.0 | 0.00 | 0.00 | 0.00 | 52 | 1016.8 |
| 20260502020309 | 44 | 352 | 0.0 | 0.0 | 0.00 | 0.00 | 0.00 | 53 | 1016.8 |
| 20260502015806 | 44 | 352 | 0.0 | 0.0 | 0.00 | 0.00 | 0.00 | 53 | 1016.6 |
| 20260502015305 | 44 | 352 | 0.0 | 0.0 | 0.00 | 0.00 | 0.00 | 53 | 1016.5 |
| 20260502014800 | 44 | 352 | 0.0 | 0.0 | 0.00 | 0.00 | 0.00 | 52 | 1016.6 |
| 20260502014257 | 44 | 352 | 0.0 | 0.0 | 0.00 | 0.00 | 0.00 | 51 | 1016.5 |
| 20260502013753 | 44 | 352 | 0.0 | 0.0 | 0.00 | 0.00 | 0.00 | 51 | 1016.5 |
| 20260502013249 | 45 | 352 | 0.0 | 0.0 | 0.00 | 0.00 | 0.00 | 50 | 1016.3 |
| 20260502012745 | 46 | 352 | 0.0 | 0.0 | 0.00 | 0.00 | 0.00 | 48 | 1016.2 |
| 20260502012243 | 46 | 352 | 0.0 | 0.0 | 0.00 | 0.00 | 0.00 | 47 | 1016.2 |
| 20260502011741 | 47 | 352 | 0.0 | 0.0 | 0.00 | 0.00 | 0.00 | 46 | 1016.3 |
| 20260502011236 | 48 | 352 | 0.0 | 0.0 | 0.00 | 0.00 | 0.00 | 44 | 1016.5 |
| 20260502010734 | 49 | 352 | 0.0 | 0.0 | 0.00 | 0.00 | 0.00 | 43 | 1016.5 |
| 20260502010230 | 49 | 352 | 0.0 | 0.9 | 0.00 | 0.00 | 0.00 | 43 | 1016.3 |
| 20260502005727 | 49 | 352 | 0.0 | 2.6 | 0.00 | 0.00 | 0.00 | 42 | 1016.3 |
| 20260502005225 | 50 | 0 | 0.0 | 0.0 | 0.00 | 0.00 | 0.00 | 41 | 1016.3 |
| 20260502004721 | 50 | 0 | 1.7 | 1.7 | 0.00 | 0.00 | 0.00 | 41 | 1016.3 |
| 20260502004218 | 50 | 348 | 0.0 | 1.7 | 0.00 | 0.00 | 0.00 | 41 | 1016.2 |
| 20260502003716 | 50 | 275 | 1.7 | 5.2 | 0.00 | 0.00 | 0.00 | 40 | 1016.3 |
| 20260502003213 | 50 | 6 | 0.0 | 0.9 | 0.00 | 0.00 | 0.00 | 41 | 1016.1 |
| 20260502002708 | 51 | 353 | 0.0 | 1.7 | 0.00 | 0.00 | 0.00 | 40 | 1016.2 |
| 20260502002207 | 51 | 345 | 0.0 | 1.7 | 0.00 | 0.00 | 0.00 | 39 | 1016.2 |
| 20260502001703 | 51 | 297 | 0.0 | 2.6 | 0.00 | 0.00 | 0.00 | 40 | 1016.2 |
| 20260502001201 | 51 | 77 | 0.0 | 1.7 | 0.00 | 0.00 | 0.00 | 40 | 1016.2 |
| 20260502000659 | 51 | 23 | 0.0 | 3.5 | 0.00 | 0.00 | 0.00 | 39 | 1016.1 |
| 20260502000156 | 51 | 0 | 2.6 | 3.5 | 0.00 | 0.00 | 0.00 | 39 | 1016.1 |
| 20260501235652 | 51 | 34 | 1.7 | 3.5 | 0.00 | 0.00 | 0.00 | 40 | 1016.0 |
| 20260501235148 | 51 | 29 | 2.6 | 4.3 | 0.00 | 0.00 | 0.00 | 39 | 1016.2 |
| 20260501234644 | 52 | 19 | 1.7 | 2.6 | 0.00 | 0.00 | 0.00 | 38 | 1016.5 |
| 20260501234141 | 52 | 81 | 0.0 | 2.6 | 0.00 | 0.00 | 0.00 | 39 | 1016.1 |
| 20260501233639 | 51 | 286 | 0.0 | 4.3 | 0.00 | 0.00 | 0.00 | 39 | 1016.1 |
| 20260501233136 | 51 | 48 | 1.7 | 3.5 | 0.00 | 0.00 | 0.00 | 39 | 1016.1 |
| 20260501232632 | 52 | 14 | 0.0 | 3.5 | 0.00 | 0.00 | 0.00 | 39 | 1016.5 |
| 20260501232130 | 52 | 277 | 0.0 | 1.7 | 0.00 | 0.00 | 0.00 | 40 | 1016.0 |
| 20260501231627 | 52 | 348 | 0.9 | 3.5 | 0.00 | 0.00 | 0.00 | 38 | 1016.2 |
| 20260501231125 | 53 | 285 | 0.0 | 4.3 | 0.00 | 0.00 | 0.00 | 39 | 1016.0 |
| 20260501230623 | 53 | 312 | 1.7 | 4.3 | 0.00 | 0.00 | 0.00 | 38 | 1016.0 |
| 20260501230121 | 54 | 270 | 0.9 | 3.5 | 0.00 | 0.00 | 0.00 | 38 | 1016.1 |
| 20260501225619 | 53 | 216 | 2.6 | 2.6 | 0.00 | 0.00 | 0.00 | 39 | 1016.1 |
| 20260501225114 | 55 | 0 | 0.9 | 3.5 | 0.00 | 0.00 | 0.00 | 35 | 1016.0 |
| 20260501224612 | 54 | 0 | 0.9 | 3.5 | 0.00 | 0.00 | 0.00 | 35 | 1016.2 |
| 20260501224109 | 54 | 348 | 2.6 | 4.3 | 0.00 | 0.00 | 0.00 | 37 | 1016.2 |
| 20260501223605 | 54 | 352 | 1.7 | 4.3 | 0.00 | 0.00 | 0.00 | 37 | 1016.3 |
| 20260501223102 | 54 | 7 | 1.7 | 4.3 | 0.00 | 0.00 | 0.00 | 37 | 1016.2 |
| 20260501222558 | 55 | 4 | 3.5 | 3.5 | 0.00 | 0.00 | 0.00 | 36 | 1016.1 |
| 20260501222055 | 53 | 40 | 1.7 | 3.5 | 0.00 | 0.00 | 0.00 | 39 | 1016.1 |
| 20260501221552 | 53 | 0 | 4.3 | 5.2 | 0.00 | 0.00 | 0.00 | 37 | 1016.6 |
| 20260501221049 | 54 | 345 | 1.7 | 5.2 | 0.00 | 0.00 | 0.00 | 36 | 1016.2 |
| 20260501220547 | 55 | 3 | 2.6 | 5.2 | 0.00 | 0.00 | 0.00 | 35 | 1016.5 |
| 20260501220044 | 56 | 20 | 0.9 | 2.6 | 0.00 | 0.00 | 0.00 | 37 | 1016.1 |
| 20260501215540 | 55 | 19 | 3.5 | 6.1 | 0.00 | 0.00 | 0.00 | 36 | 1016.1 |
| 20260501215035 | 55 | 311 | 2.6 | 7.8 | 0.00 | 0.00 | 0.00 | 36 | 1016.3 |
| 20260501214531 | 54 | 354 | 2.6 | 2.6 | 0.00 | 0.00 | 0.00 | 37 | 1016.3 |
| 20260501214027 | 54 | 358 | 3.5 | 5.2 | 0.00 | 0.00 | 0.00 | 39 | 1016.2 |
| 20260501213524 | 52 | 18 | 0.9 | 2.6 | 0.00 | 0.00 | 0.00 | 41 | 1016.2 |
| 20260501213020 | 52 | 82 | 0.9 | 4.3 | 0.00 | 0.00 | 0.00 | 42 | 1016.5 |
| 20260501212516 | 55 | 348 | 1.7 | 6.1 | 0.00 | 0.00 | 0.00 | 38 | 1016.2 |
| 20260501212014 | 55 | 296 | 2.6 | 5.2 | 0.00 | 0.00 | 0.00 | 35 | 1016.2 |
| 20260501211510 | 56 | 315 | 3.5 | 4.3 | 0.00 | 0.00 | 0.00 | 36 | 1016.2 |
| 20260501211008 | 54 | 32 | 3.5 | 4.3 | 0.00 | 0.00 | 0.00 | 39 | 1016.3 |
| 20260501210504 | 51 | 342 | 0.9 | 2.6 | 0.00 | 0.00 | 0.00 | 39 | 1016.3 |
| 20260501210001 | 51 | 277 | 3.5 | 4.3 | 0.00 | 0.00 | 0.00 | 40 | 1016.5 |
| 20260501205458 | 52 | 349 | 0.9 | 4.3 | 0.00 | 0.00 | 0.00 | 40 | 1016.7 |
| 20260501204955 | 54 | 90 | 0.9 | 4.3 | 0.00 | 0.00 | 0.00 | 39 | 1016.6 |
| 20260501204451 | 55 | 250 | 2.6 | 5.2 | 0.00 | 0.00 | 0.00 | 38 | 1016.3 |
| 20260501203947 | 56 | 259 | 0.0 | 3.5 | 0.00 | 0.00 | 0.00 | 40 | 1016.5 |
| 20260501203444 | 55 | 337 | 4.3 | 6.1 | 0.00 | 0.00 | 0.00 | 37 | 1016.6 |
| 20260501202942 | 55 | 77 | 0.0 | 4.3 | 0.00 | 0.00 | 0.00 | 37 | 1016.7 |
| 20260501202438 | 56 | 308 | 3.5 | 6.1 | 0.00 | 0.00 | 0.00 | 37 | 1016.7 |
| 20260501201935 | 55 | 4 | 1.7 | 6.1 | 0.00 | 0.00 | 0.00 | 38 | 1016.7 |
| 20260501201432 | 56 | 63 | 0.0 | 3.5 | 0.00 | 0.00 | 0.00 | 41 | 1016.6 |
| 20260501200929 | 54 | 14 | 0.0 | 3.5 | 0.00 | 0.00 | 0.00 | 42 | 1016.8 |
| 20260501200426 | 53 | 141 | 1.7 | 1.7 | 0.00 | 0.00 | 0.00 | 41 | 1016.5 |
| 20260501195924 | 53 | 338 | 0.0 | 3.5 | 0.00 | 0.00 | 0.00 | 41 | 1017.0 |
| 20260501195420 | 53 | 327 | 1.7 | 3.5 | 0.00 | 0.00 | 0.00 | 40 | 1016.7 |
| 20260501194915 | 54 | 213 | 0.0 | 2.6 | 0.00 | 0.00 | 0.00 | 45 | 1016.8 |
| 20260501194412 | 52 | 0 | 0.9 | 3.5 | 0.00 | 0.00 | 0.00 | 41 | 1016.7 |